Annapolis, MD (21404)

12:07 PM EDT on March 29, 2015 (GMT -0400)
St Margarets | | Change Station
CLOSE
Current Station
Personal Weather Station
Location: Annapolis, MD
Elevation: 8 ft
Nearby Weather Stations

Elev 8 ft 39.01 °N, 76.46 °W | Updated 1 second ago

Clear
Clear
38.5 °F
Feels Like 38 °F
N
2.5
Wind Variable Wind from NNE
Gusts 4.0 mph

Today
High -- | Low -- °F
--% Chance of Precip.
Yesterday
High -- | Low -- °F
Precip. -- in
6:55 AM 7:26 PM
Waxing Gibbous, 72% visible
Pressure 30.39 in
Visibility 10.0 miles
Clouds Clear
Windchill 38 °F
Dew Point 5 °F
Humidity 24%
Rainfall 0.00 in
Snow Depth Not available.
UV 8 out of 12
Pollen 7.70 out of 12
Air Quality Not available.
Flu Activity Not available.
METAR KNAK 291554Z AUTO 31009KT 10SM CLR 02/M13 A3038 RMK AO2 SLP289 T00221133

More Conditions Fewer Conditions

Pressure 30.39 in
Visibility 10.0 miles
Clouds Clear
Windchill 38 °F
Dew Point 5 °F
Humidity 24%
Rainfall 0.00 in
Snow Depth Not available.
UV 8 out of 12
Pollen 7.70 out of 12
Air Quality Not available.
Flu Activity Not available.
METAR KNAK 291554Z AUTO 31009KT 10SM CLR 02/M13 A3038 RMK AO2 SLP289 T00221133

More Conditions Fewer Conditions

10-Day Weather Forecast

Almanac

Astronomy

Mar. 29, 2015 Rise Set
Actual Time
Civil Twilight
Nautical Twilight
Astronomical Twilight
Moon
Length of Visible Light
Length of Day
Tomorrow will be .
, % of the Moon is Illuminated

Today's Extremes

State Highs State Lows

Community

WunderPhotos

Upload Photos

1,809,276 photos uploaded!

WunderBlogs® & News

Nearby

Air Quality

  Air Quality AQ Index Pollutant
Not available.

Snow Depth

Station Depth Elevation

Earthquake Activity

City Distance Mag. Time & Date
Minimum magnitude displayed is 2.5.

Coastal Water Temperatures

Place Temperature

Stations

Nearby Weather Stations

Station Location Temp. Windchill Dew Point Humidity Wind Precip. Elev Updated Type